Time;durP1;ratioP1;P1;durP2;ratioP2;P2;SDS_P1;SDS_P2;PMS_P1;PMS_P2;Temp;Humidity;BMP_temperature;BMP_pressure;BME280_temperature;BME280_humidity;BME280_pressure;Samples;Min_cycle;Max_cycle;Signal;HPM_P1;HPM_P2
2024/02/10 00:02:10;;;;;;;0.00;0.00;;;;;;;-145.06;100.00;63219.06;10418852;28;20033;-74
2024/02/10 00:07:12;;;;;;;0.00;0.00;;;;;;;-145.06;100.00;63594.63;10405344;28;20245;-73
2024/02/10 00:12:12;;;;;;;0.00;0.00;;;;;;;-145.06;100.00;63962.09;10413985;28;20435;-74
2024/02/10 00:17:15;;;;;;;0.10;0.10;;;;;;;-145.06;100.00;64254.47;10413467;28;20034;-73
2024/02/10 00:22:17;;;;;;;0.00;0.00;;;;;;;-145.06;100.00;64516.38;10417481;28;20035;-73
2024/02/10 00:27:17;;;;;;;0.00;0.00;;;;;;;-145.06;100.00;64778.34;10413623;28;20032;-73
2024/02/10 00:32:18;;;;;;;0.00;0.00;;;;;;;-145.06;100.00;64473.75;10413273;28;20501;-73
2024/02/10 00:37:18;;;;;;;0.00;0.00;;;;;;;-145.06;100.00;64902.22;10412989;28;20288;-74
2024/02/10 00:42:18;;;;;;;0.00;0.00;;;;;;;-145.06;100.00;65424.16;10413788;28;20099;-73
2024/02/10 00:47:19;;;;;;;0.00;0.00;;;;;;;-145.06;100.00;65704.47;10412771;28;20018;-74
2024/02/10 00:52:19;;;;;;;0.00;0.00;;;;;;;-145.06;100.00;66007.13;10412754;28;20256;-73
2024/02/10 00:57:19;;;;;;;0.00;0.00;;;;;;;-145.06;100.00;65960.41;10411922;28;20056;-74
2024/02/10 01:02:19;;;;;;;0.00;0.00;;;;;;;-145.06;100.00;66352.47;10422333;28;20284;-74
2024/02/10 01:07:20;;;;;;;0.00;0.00;;;;;;;-145.06;100.00;66423.56;10412145;28;20272;-74
2024/02/10 01:12:20;;;;;;;0.00;0.00;;;;;;;-145.06;100.00;66594.22;10411753;28;20084;-73
2024/02/10 01:17:21;;;;;;;0.00;0.00;;;;;;;-145.06;100.00;66858.34;10412379;28;20030;-74
2024/02/10 01:22:26;;;;;;;0.00;0.00;;;;;;;-145.06;100.00;67031.03;10410630;28;20318;-73
2024/02/10 01:27:26;;;;;;;0.00;0.00;;;;;;;-145.06;100.00;67317.53;10409733;28;20554;-73
2024/02/10 01:32:27;;;;;;;0.00;0.00;;;;;;;-145.06;100.00;67919.06;10411394;28;20156;-73
2024/02/10 01:37:28;;;;;;;0.00;0.00;;;;;;;-145.06;100.00;68534.91;10409867;28;20025;-74
2024/02/10 01:42:37;;;;;;;0.00;0.00;;;;;;;-145.06;100.00;69156.94;10411517;28;20014;-74
2024/02/10 01:47:39;;;;;;;0.00;0.00;;;;;;;-145.06;100.00;69213.88;10410811;28;20085;-74
2024/02/10 01:52:40;;;;;;;0.00;0.00;;;;;;;-145.06;100.00;69453.75;10410831;28;20060;-73
2024/02/10 01:57:40;;;;;;;0.00;0.00;;;;;;;-145.06;100.00;69911.22;10410324;28;20072;-74
2024/02/10 02:02:41;;;;;;;0.00;0.00;;;;;;;-145.06;100.00;70641.25;10411249;28;20121;-74
2024/02/10 02:07:41;;;;;;;0.00;0.00;;;;;;;-145.06;100.00;70704.31;10409364;28;20075;-73
2024/02/10 02:12:48;;;;;;;0.00;0.00;;;;;;;-145.06;100.00;71023.63;10409924;28;20056;-74
2024/02/10 02:17:48;;;;;;;0.10;0.10;;;;;;;-145.06;100.00;72172.94;10407756;28;20486;-73
2024/02/10 02:22:49;;;;;;;0.00;0.00;;;;;;;-145.06;100.00;72423.19;10409385;28;20056;-74
2024/02/10 02:27:50;;;;;;;0.00;0.00;;;;;;;-145.06;100.00;72120.03;10409577;28;20294;-74
2024/02/10 02:32:50;;;;;;;0.00;0.00;;;;;;;-145.06;100.00;70808.03;10408524;28;20080;-73
2024/02/10 02:37:51;;;;;;;0.00;0.00;;;;;;;-145.06;100.00;70850.75;10408822;28;20033;-74
2024/02/10 02:42:53;;;;;;;0.00;0.00;;;;;;;-145.06;100.00;71469.06;10409588;28;20455;-74
2024/02/10 02:47:56;;;;;;;0.00;0.00;;;;;;;-145.06;100.00;72954.25;10408659;28;20013;-73
2024/02/10 02:53:02;;;;;;;0.00;0.00;;;;;;;-145.06;100.00;72954.25;10408807;28;20026;-74
2024/02/10 02:58:09;;;;;;;0.00;0.00;;;;;;;-145.06;100.00;72433.34;10406987;28;20025;-73
2024/02/10 03:03:09;;;;;;;0.00;0.00;;;;;;;-145.06;100.00;73214.72;10408832;28;20416;-74
2024/02/10 03:08:09;;;;;;;0.10;0.10;;;;;;;-145.06;100.00;73735.72;10408209;28;20048;-74
2024/02/10 03:13:10;;;;;;;0.00;0.00;;;;;;;-145.06;100.00;74517.34;10407477;28;20027;-74
2024/02/10 03:18:10;;;;;;;0.00;0.00;;;;;;;-145.06;100.00;74777.91;10407358;28;20013;-74
2024/02/10 03:23:13;;;;;;;0.00;0.00;;;;;;;-145.06;100.00;75038.50;10407229;28;20257;-74
2024/02/10 03:28:15;;;;;;;0.00;0.00;;;;;;;-145.06;100.00;75299.13;10407408;28;20568;-74
2024/02/10 03:33:16;;;;;;;0.00;0.00;;;;;;;-145.06;100.00;75038.50;10406696;28;20068;-74
2024/02/10 03:38:17;;;;;;;0.03;0.03;;;;;;;-145.06;100.00;75820.38;10407044;28;20025;-74
2024/02/10 03:43:22;;;;;;;0.00;0.00;;;;;;;-145.06;100.00;76341.72;10410308;28;20033;-74
2024/02/10 03:48:22;;;;;;;0.00;0.00;;;;;;;-145.06;100.00;76863.13;10420056;28;20021;-74
2024/02/10 03:53:24;;;;;;;0.00;0.00;;;;;;;-145.06;100.00;77123.84;10421542;28;20036;-74
2024/02/10 03:58:24;;;;;;;0.00;0.00;;;;;;;-145.06;100.00;77906.13;10429581;28;20406;-73
2024/02/10 04:03:27;;;;;;;0.10;0.10;;;;;;;-145.06;100.00;77906.13;10420391;28;20597;-74
2024/02/10 04:08:28;;;;;;;0.00;0.00;;;;;;;-145.06;100.00;78688.59;10419283;28;20018;-74
2024/02/10 04:13:29;;;;;;;0.00;0.00;;;;;;;-145.06;100.00;79210.28;10420344;28;20021;-74
2024/02/10 04:18:29;;;;;;;0.00;0.00;;;;;;;-145.06;100.00;78949.44;10419641;28;20493;-74
2024/02/10 04:23:32;;;;;;;0.00;0.00;;;;;;;-145.06;100.00;78427.75;10419517;28;20025;-74
2024/02/10 04:28:36;;;;;;;0.00;0.00;;;;;;;-145.06;100.00;78166.94;10417707;28;20490;-74
2024/02/10 04:33:36;;;;;;;0.00;0.00;;;;;;;-145.06;100.00;78427.75;10419375;28;20029;-74
2024/02/10 04:38:37;;;;;;;0.00;0.00;;;;;;;-145.06;100.00;79210.28;10419139;28;20025;-74
2024/02/10 04:43:37;;;;;;;0.00;0.00;;;;;;;-145.06;100.00;79471.16;10413935;28;20436;-74
2024/02/10 04:48:37;;;;;;;0.00;0.00;;;;;;;-145.06;100.00;79210.28;10419642;28;20029;-74
2024/02/10 04:53:38;;;;;;;0.00;0.00;;;;;;;-145.06;100.00;78688.59;10419036;28;20041;-74
2024/02/10 04:58:38;;;;;;;0.00;0.00;;;;;;;-145.06;100.00;78949.44;10411666;28;20085;-74
2024/02/10 05:03:40;;;;;;;0.00;0.00;;;;;;;-145.06;100.00;80253.91;10412440;28;20032;-74
2024/02/10 05:08:40;;;;;;;0.00;0.00;;;;;;;-145.06;100.00;80775.81;10412792;28;20060;-74
2024/02/10 05:13:41;;;;;;;0.00;0.00;;;;;;;-145.06;100.00;81558.81;10413152;28;20037;-74
2024/02/10 05:18:41;;;;;;;0.00;0.00;;;;;;;-145.06;100.00;82341.97;10412214;28;20030;-74
2024/02/10 05:23:45;;;;;;;0.00;0.00;;;;;;;-145.06;100.00;82864.16;10413424;28;20025;-74
2024/02/10 05:28:47;;;;;;;0.00;0.00;;;;;;;-145.06;100.00;83386.41;10412267;28;20037;-74
2024/02/10 05:33:48;;;;;;;0.00;0.00;;;;;;;-145.06;100.00;83908.72;10412549;28;20529;-74
2024/02/10 05:38:48;;;;;;;0.00;0.00;;;;;;;-145.06;100.00;84431.13;10411949;28;20087;-74
2024/02/10 05:43:51;;;;;;;0.00;0.00;;;;;;;-145.06;100.00;84692.34;10412461;28;20025;-74
2024/02/10 05:48:51;;;;;;;0.00;0.00;;;;;;;-145.06;100.00;84692.34;10411611;28;20096;-75
2024/02/10 05:53:51;;;;;;;0.00;0.00;;;;;;;-145.06;100.00;85214.81;10411105;28;20478;-74
2024/02/10 05:58:51;;;;;;;0.00;0.00;;;;;;;-145.06;100.00;85214.81;10412199;28;20127;-75
2024/02/10 06:03:54;;;;;;;0.00;0.00;;;;;;;-145.06;100.00;85476.09;10411017;28;20032;-74
2024/02/10 06:08:55;;;;;;;0.00;0.00;;;;;;;-145.06;100.00;85737.38;10410081;28;20026;-74
2024/02/10 06:13:55;;;;;;;0.00;0.00;;;;;;;-145.06;100.00;85998.69;10410617;28;20051;-75
2024/02/10 06:18:58;;;;;;;0.00;0.00;;;;;;;-145.06;100.00;85998.69;10409964;28;20029;-75
2024/02/10 06:24:00;;;;;;;0.00;0.00;;;;;;;-145.06;100.00;86260.00;10410444;28;20033;-75
2024/02/10 06:29:00;;;;;;;0.00;0.00;;;;;;;-145.06;100.00;86521.34;10418610;28;20152;-75
2024/02/10 06:34:00;;;;;;;0.00;0.00;;;;;;;-145.06;100.00;86782.69;10411196;28;20021;-75
2024/02/10 06:39:00;;;;;;;0.10;0.10;;;;;;;-145.06;100.00;86521.34;10409624;28;20029;-75
2024/02/10 06:44:04;;;;;;;0.00;0.00;;;;;;;-145.06;100.00;86260.00;10409493;28;20013;-75
2024/02/10 06:49:06;;;;;;;0.00;0.00;;;;;;;-145.06;100.00;86782.69;10410037;28;20033;-75
2024/02/10 06:54:07;;;;;;;0.00;0.00;;;;;;;-145.06;100.00;86782.69;10409936;28;20498;-75
2024/02/10 06:59:07;;;;;;;0.00;0.00;;;;;;;-145.06;100.00;86782.69;10408967;28;20031;-75
2024/02/10 07:04:08;;;;;;;0.00;0.00;;;;;;;-145.06;100.00;87044.06;10409132;28;20036;-74
2024/02/10 07:09:08;;;;;;;0.00;0.00;;;;;;;-145.06;100.00;87566.88;10408629;28;20445;-75
2024/02/10 07:14:10;;;;;;;0.10;0.10;;;;;;;-145.06;100.00;88351.19;10409391;28;20459;-75
2024/02/10 07:19:11;;;;;;;0.00;0.00;;;;;;;-145.06;100.00;88874.16;10406396;28;20041;-74
2024/02/10 07:24:13;;;;;;;0.00;0.00;;;;;;;-145.06;100.00;88874.16;10408413;28;20471;-74
2024/02/10 07:29:13;;;;;;;0.00;0.00;;;;;;;-145.06;100.00;88874.16;10406962;28;20094;-74
2024/02/10 07:34:13;;;;;;;0.00;0.00;;;;;;;-145.06;100.00;89135.66;10407887;28;20029;-74
2024/02/10 07:39:16;;;;;;;0.00;0.00;;;;;;;-145.06;100.00;89397.19;10408620;28;20032;-74
2024/02/10 07:44:18;;;;;;;0.00;0.00;;;;;;;-145.06;100.00;89658.72;10406721;28;20022;-74
2024/02/10 07:49:21;;;;;;;0.10;0.10;;;;;;;-145.06;100.00;90181.88;10406919;28;20051;-74
2024/02/10 07:54:22;;;;;;;0.00;0.00;;;;;;;-145.06;100.00;90443.44;10408274;28;20382;-74
2024/02/10 07:59:24;;;;;;;0.03;0.03;;;;;;;-145.06;100.00;90443.44;10407392;28;20025;-74
2024/02/10 08:04:24;;;;;;;0.00;0.00;;;;;;;-145.06;100.00;90705.06;10407883;28;20083;-74
2024/02/10 08:09:24;;;;;;;0.00;0.00;;;;;;;-145.06;100.00;90966.69;10405458;28;20071;-73
2024/02/10 08:14:25;;;;;;;0.00;0.00;;;;;;;-145.06;100.00;91228.34;10404245;28;20033;-73
2024/02/10 08:19:29;;;;;;;0.00;0.00;;;;;;;-145.06;100.00;91490.00;10404859;28;20017;-73
2024/02/10 08:24:31;;;;;;;0.00;0.00;;;;;;;-145.06;100.00;91751.66;10408018;28;20028;-75
2024/02/10 08:29:33;;;;;;;0.00;0.00;;;;;;;-145.06;100.00;91751.66;10407931;28;20021;-73
2024/02/10 08:34:38;;;;;;;0.00;0.00;;;;;;;-145.06;100.00;92275.06;10410104;28;20067;-73
2024/02/10 08:39:40;;;;;;;0.10;0.10;;;;;;;-145.06;100.00;92536.81;10413404;28;20056;-73
2024/02/10 08:44:44;;;;;;;0.00;0.00;;;;;;;-145.06;100.00;92798.56;10411813;28;20029;-73
2024/02/10 08:49:44;;;;;;;0.00;0.00;;;;;;;-145.06;100.00;93060.31;10414049;28;20033;-73
2024/02/10 08:54:45;;;;;;;0.00;0.00;;;;;;;-145.06;100.00;93060.31;10414162;28;20029;-73
2024/02/10 08:59:51;;;;;;;0.00;0.00;;;;;;;-145.06;100.00;93583.88;10412477;28;20029;-73
2024/02/10 09:04:53;;;;;;;0.00;0.00;;;;;;;-145.06;100.00;93845.69;10413265;28;20018;-73
2024/02/10 09:09:53;;;;;;;0.00;0.00;;;;;;;-145.06;100.00;93845.69;10412783;28;20021;-73
2024/02/10 09:14:54;;;;;;;0.00;0.00;;;;;;;-145.06;100.00;94107.53;10411135;28;20029;-73
2024/02/10 09:19:54;;;;;;;0.00;0.00;;;;;;;-145.06;100.00;94369.38;10412621;28;20267;-73
2024/02/10 09:24:55;;;;;;;0.00;0.00;;;;;;;-145.06;100.00;94369.38;10412443;28;20372;-73
2024/02/10 09:29:56;;;;;;;0.00;0.00;;;;;;;-145.06;100.00;94631.25;10412427;28;20383;-73
2024/02/10 09:34:57;;;;;;;0.00;0.00;;;;;;;-145.06;100.00;94893.13;10412438;28;20434;-73
2024/02/10 09:39:57;;;;;;;0.00;0.00;;;;;;;-145.06;100.00;95678.88;10407366;28;20501;-75
2024/02/10 09:44:58;;;;;;;0.07;0.07;;;;;;;-145.06;100.00;95678.88;10412958;28;20045;-67
2024/02/10 09:50:02;;;;;;;0.00;0.00;;;;;;;-145.06;100.00;95416.94;10414960;28;20264;-69
2024/02/10 09:55:05;;;;;;;0.00;0.00;;;;;;;-145.06;100.00;95678.88;10414816;28;20022;-77
2024/02/10 10:00:07;;;;;;;0.00;0.00;;;;;;;-145.06;100.00;95678.88;10409729;28;20472;-75
2024/02/10 10:05:07;;;;;;;0.10;0.10;;;;;;;-145.06;100.00;95940.81;10407069;28;20045;-73
2024/02/10 10:10:08;;;;;;;0.00;0.00;;;;;;;-145.06;100.00;96202.78;10406664;28;20052;-73
2024/02/10 10:15:08;;;;;;;0.00;0.00;;;;;;;-145.06;100.00;95940.81;10405977;28;20290;-77
2024/02/10 10:20:09;;;;;;;0.00;0.00;;;;;;;-145.06;100.00;95940.81;10419697;28;20534;-79
2024/02/10 10:25:09;;;;;;;0.00;0.00;;;;;;;-145.06;100.00;96464.78;10419125;28;20026;-75
2024/02/10 10:30:14;;;;;;;0.00;0.00;;;;;;;-145.06;100.00;95678.88;10414408;28;20044;-75
2024/02/10 10:35:14;;;;;;;0.00;0.00;;;;;;;-145.06;100.00;96202.78;10413543;28;20315;-75
2024/02/10 10:40:16;;;;;;;0.10;0.10;;;;;;;-145.06;100.00;95940.81;10412570;28;20053;-77
2024/02/10 10:45:17;;;;;;;0.00;0.00;;;;;;;-145.06;100.00;95416.94;10435057;28;20021;-75
2024/02/10 10:50:18;;;;;;;0.00;0.00;;;;;;;-145.06;100.00;94631.25;10437752;28;20026;-74
2024/02/10 10:55:20;;;;;;;0.10;0.10;;;;;;;-145.06;100.00;94107.53;10412639;28;20490;-75
2024/02/10 11:00:25;;;;;;;0.00;0.00;;;;;;;-145.06;100.00;94369.38;10414005;28;20094;-77
2024/02/10 11:05:26;;;;;;;0.10;0.10;;;;;;;-145.06;100.00;94631.25;10413204;28;20017;-75
2024/02/10 11:10:48;;;;;;;0.00;0.00;;;;;;;-145.06;100.00;94369.38;10410493;28;20036;-74
2024/02/10 11:16:05;;;;;;;0.00;0.00;;;;;;;-145.06;100.00;94893.13;10407371;28;20037;-75
2024/02/10 11:21:18;;;;;;;0.00;0.00;;;;;;;-145.06;100.00;95155.03;10404398;28;20021;-75
2024/02/10 11:26:20;;;;;;;0.00;0.00;;;;;;;-145.06;100.00;94893.13;10408324;28;20029;-75
2024/02/10 11:31:22;;;;;;;0.08;0.08;;;;;;;-145.06;100.00;93583.88;10408224;28;20506;-75
2024/02/10 11:36:23;;;;;;;0.00;0.00;;;;;;;-145.06;100.00;93583.88;10407664;28;20021;-75
2024/02/10 11:41:23;;;;;;;0.10;0.10;;;;;;;-145.06;100.00;93583.88;10407518;28;20061;-74
2024/02/10 11:46:26;;;;;;;0.00;0.00;;;;;;;-145.06;100.00;93845.69;10405187;28;20040;-75
2024/02/10 11:51:28;;;;;;;0.00;0.00;;;;;;;-145.06;100.00;93583.88;10407621;28;20021;-75
2024/02/10 11:56:33;;;;;;;0.00;0.00;;;;;;;-145.06;100.00;94369.38;10407284;28;20164;-75
2024/02/10 12:01:34;;;;;;;0.08;0.08;;;;;;;-145.06;100.00;94631.25;10406927;28;20029;-75
2024/02/10 12:06:38;;;;;;;0.00;0.00;;;;;;;-145.06;100.00;94369.38;10412363;28;20021;-75
2024/02/10 12:11:38;;;;;;;0.00;0.00;;;;;;;-145.06;100.00;94631.25;10415165;28;20585;-75
2024/02/10 12:16:41;;;;;;;0.00;0.00;;;;;;;-145.06;100.00;94631.25;10414648;28;20075;-74
2024/02/10 12:21:57;;;;;;;0.00;0.00;;;;;;;-145.06;100.00;95416.94;10414659;28;20024;-74
2024/02/10 12:27:01;;;;;;;0.00;0.00;;;;;;;-145.06;100.00;95416.94;10413422;28;20116;-74
2024/02/10 12:32:02;;;;;;;0.10;0.10;;;;;;;-145.06;100.00;94631.25;10412205;28;20537;-74
2024/02/10 12:37:02;;;;;;;0.10;0.10;;;;;;;-145.06;100.00;93845.69;10414498;28;20025;-74
2024/02/10 12:42:03;;;;;;;0.10;0.10;;;;;;;-145.06;100.00;93845.69;10414173;28;20048;-75
2024/02/10 12:47:04;;;;;;;0.00;0.00;;;;;;;-145.06;100.00;95155.03;10413998;28;20494;-74
2024/02/10 12:52:06;;;;;;;0.00;0.00;;;;;;;-145.06;100.00;95678.88;10413871;28;20029;-74
2024/02/10 12:57:07;;;;;;;0.00;0.00;;;;;;;-145.06;100.00;96464.78;10412267;28;20021;-74
2024/02/10 13:02:08;;;;;;;0.00;0.00;;;;;;;-145.06;100.00;96988.78;10410283;28;20537;-74
2024/02/10 13:07:09;;;;;;;0.10;0.10;;;;;;;-145.06;100.00;97512.88;10411179;28;20028;-74
2024/02/10 13:12:09;;;;;;;0.00;0.00;;;;;;;-145.06;100.00;98561.25;10410818;28;20036;-74
2024/02/10 13:17:09;;;;;;;0.08;0.08;;;;;;;-145.06;100.00;99085.53;10410411;28;20013;-74
2024/02/10 13:22:11;;;;;;;0.10;0.10;;;;;;;-145.06;100.00;99085.53;10411432;28;20025;-74
2024/02/10 13:27:11;;;;;;;0.00;0.00;;;;;;;-145.06;100.00;98823.38;10412232;28;20252;-74
2024/02/10 13:32:13;;;;;;;0.00;0.00;;;;;;;-145.06;100.00;98823.38;10411023;28;20017;-74
2024/02/10 14:03:13;;;;;;;0.10;0.10;;;;;;;-145.06;100.00;100134.31;10411458;28;20025;-75
2024/02/10 14:13:18;;;;;;;0.00;0.00;;;;;;;-145.06;100.00;100921.06;10411029;28;20021;-75
2024/02/10 14:18:25;;;;;;;0.10;0.10;;;;;;;-145.06;100.00;101183.38;10410158;28;20049;-75
2024/02/10 14:23:26;;;;;;;0.10;0.10;;;;;;;-145.06;100.00;101445.66;10398388;28;20333;-76
2024/02/10 14:28:49;;;;;;;0.10;0.10;;;;;;;-145.06;100.00;100921.06;10397264;28;20439;-75
2024/02/10 14:33:52;;;;;;;0.10;0.10;;;;;;;-145.06;100.00;100921.06;10409152;28;20467;-76
2024/02/10 14:43:56;;;;;;;0.00;0.00;;;;;;;-145.06;100.00;101183.38;10405785;28;20484;-75
2024/02/10 14:48:56;;;;;;;0.10;0.10;;;;;;;-145.06;100.00;101708.00;10407938;28;20013;-75
2024/02/10 14:53:56;;;;;;;0.00;0.00;;;;;;;-145.06;100.00;101708.00;10407259;28;20270;-75
2024/02/10 14:58:58;;;;;;;0.00;0.00;;;;;;;-145.06;100.00;101445.66;10406131;28;20068;-75
2024/02/10 15:04:05;;;;;;;0.08;0.08;;;;;;;-145.06;100.00;101183.38;10406529;28;20140;-75
2024/02/10 15:09:09;;;;;;;0.00;0.00;;;;;;;-145.06;100.00;100921.06;10408201;28;20009;-75
2024/02/10 15:14:09;;;;;;;0.10;0.10;;;;;;;-145.06;100.00;101445.66;10408006;28;20076;-75
2024/02/10 15:19:11;;;;;;;0.00;0.00;;;;;;;-145.06;100.00;101970.31;10407331;28;20017;-76
2024/02/10 15:24:12;;;;;;;0.00;0.00;;;;;;;-145.06;100.00;102232.69;10407955;28;20348;-75
2024/02/10 15:29:13;;;;;;;0.00;0.00;;;;;;;-145.06;100.00;102757.44;10405103;28;20044;-75
2024/02/10 15:34:13;;;;;;;0.08;0.08;;;;;;;-145.06;100.00;103019.84;10407895;28;20053;-75
2024/02/10 15:39:17;;;;;;;0.00;0.00;;;;;;;-145.06;100.00;103282.28;10406648;28;20021;-75
2024/02/10 15:44:17;;;;;;;0.00;0.00;;;;;;;-145.06;100.00;104069.66;10408112;28;20044;-76
2024/02/10 15:49:19;;;;;;;0.00;0.00;;;;;;;-145.06;100.00;104594.66;10407534;28;20052;-76
2024/02/10 15:54:20;;;;;;;0.00;0.00;;;;;;;-145.06;100.00;105119.72;10406660;28;20037;-75
2024/02/10 15:59:20;;;;;;;0.00;0.00;;;;;;;-145.06;100.00;105644.84;10405125;28;20437;-76
2024/02/10 16:04:21;;;;;;;0.10;0.10;;;;;;;-145.06;100.00;105907.44;10407403;28;20076;-76
2024/02/10 16:09:23;;;;;;;0.10;0.10;;;;;;;-145.06;100.00;106170.06;10407009;28;20025;-75
2024/02/10 16:14:27;;;;;;;0.00;0.00;;;;;;;-145.06;100.00;106432.69;10407011;28;20384;-76
2024/02/10 16:19:28;;;;;;;0.00;0.00;;;;;;;-145.06;100.00;106432.69;10402648;28;20502;-76
2024/02/10 16:24:28;;;;;;;0.05;0.05;;;;;;;-145.06;100.00;106958.00;10403476;28;20026;-76
2024/02/10 16:29:28;;;;;;;0.00;0.00;;;;;;;-145.06;100.00;107220.66;10408316;28;20048;-76
2024/02/10 16:34:29;;;;;;;0.00;0.00;;;;;;;-145.06;100.00;107483.38;10406551;28;20433;-76
2024/02/10 16:39:30;;;;;;;0.00;0.00;;;;;;;-145.06;100.00;107746.09;10405951;28;20021;-76
2024/02/10 16:44:30;;;;;;;0.10;0.10;;;;;;;-145.06;100.00;107220.66;10417604;28;20032;-76
2024/02/10 16:49:32;;;;;;;0.10;0.10;;;;;;;-145.06;100.00;107220.66;10404605;28;20025;-76
2024/02/10 16:54:32;;;;;;;0.00;0.00;;;;;;;-145.06;100.00;108008.81;10423252;28;20030;-76
2024/02/10 16:59:33;;;;;;;0.10;0.10;;;;;;;-145.06;100.00;108271.56;10411638;28;20033;-77
2024/02/10 17:04:35;;;;;;;0.00;0.00;;;;;;;-145.06;100.00;108534.31;10413115;28;20025;-76
2024/02/10 17:09:35;;;;;;;0.00;0.00;;;;;;;-145.06;100.00;108534.31;10412743;28;20025;-77
2024/02/10 17:14:36;;;;;;;0.10;0.10;;;;;;;-145.06;100.00;108534.31;10412676;28;20029;-76
2024/02/10 17:19:36;;;;;;;0.00;0.00;;;;;;;-145.06;100.00;108797.09;10412035;28;20076;-76
2024/02/10 17:24:37;;;;;;;0.10;0.10;;;;;;;-145.06;100.00;108797.09;10408358;28;20025;-76
2024/02/10 17:29:38;;;;;;;0.00;0.00;;;;;;;-145.06;100.00;109059.91;10409825;28;20056;-76
2024/02/10 17:34:40;;;;;;;0.00;0.00;;;;;;;-145.06;100.00;109059.91;10410653;28;20108;-76
2024/02/10 17:39:40;;;;;;;0.00;0.00;;;;;;;-145.06;100.00;109059.91;10411561;28;20041;-76
2024/02/10 17:44:41;;;;;;;0.00;0.00;;;;;;;-145.06;100.00;109059.91;10412216;28;20072;-76
2024/02/10 17:49:44;;;;;;;0.00;0.00;;;;;;;-145.06;100.00;109059.91;10410162;28;20402;-76
2024/02/10 17:54:46;;;;;;;0.00;0.00;;;;;;;-145.06;100.00;109059.91;10411325;28;20032;-76
2024/02/10 17:59:46;;;;;;;0.00;0.00;;;;;;;-145.06;100.00;109322.72;10407881;28;20025;-76
2024/02/10 18:04:46;;;;;;;0.07;0.07;;;;;;;-145.06;100.00;109322.72;10408266;28;20375;-76
2024/02/10 18:09:49;;;;;;;0.00;0.00;;;;;;;-145.06;100.00;109322.72;10410577;28;20043;-76
2024/02/10 18:14:49;;;;;;;0.00;0.00;;;;;;;-145.06;100.00;109059.91;10408203;28;20121;-76
2024/02/10 18:19:50;;;;;;;0.00;0.00;;;;;;;-145.06;100.00;109059.91;10409993;28;20025;-76
2024/02/10 18:24:51;;;;;;;0.08;0.08;;;;;;;-145.06;100.00;109322.72;10411297;28;20014;-76
2024/02/10 18:29:51;;;;;;;0.00;0.00;;;;;;;-145.06;100.00;109585.53;10407977;28;20067;-76
2024/02/10 18:34:53;;;;;;;0.00;0.00;;;;;;;-145.06;100.00;109848.38;10384378;28;20379;-76
2024/02/10 18:39:54;;;;;;;0.00;0.00;;;;;;;-145.06;100.00;110111.25;10402603;28;20371;-76
2024/02/10 18:44:54;;;;;;;0.00;0.00;;;;;;;-145.06;100.00;110111.25;10407884;28;20025;-76
2024/02/10 18:49:56;;;;;;;0.10;0.10;;;;;;;-145.06;100.00;110374.13;10407205;28;20471;-76
2024/02/10 18:54:57;;;;;;;0.00;0.00;;;;;;;-145.06;100.00;110637.03;10407325;28;20025;-76
2024/02/10 18:59:58;;;;;;;0.00;0.00;;;;;;;-145.06;100.00;110899.94;10404948;28;20032;-76
2024/02/10 19:05:00;;;;;;;0.10;0.10;;;;;;;-145.06;100.00;110899.94;10407466;28;20027;-79
2024/02/10 19:10:08;;;;;;;0.10;0.10;;;;;;;-145.06;100.00;110899.94;10407752;28;20398;-76
2024/02/10 19:15:09;;;;;;;0.00;0.00;;;;;;;-145.06;100.00;111162.88;10408618;28;20029;-76
2024/02/10 19:20:18;;;;;;;0.00;0.00;;;;;;;-145.06;100.00;111162.88;10405635;28;20017;-76
2024/02/10 19:25:19;;;;;;;0.00;0.00;;;;;;;-145.06;100.00;111162.88;10408576;28;20018;-76
2024/02/10 19:30:19;;;;;;;0.00;0.00;;;;;;;-145.06;100.00;111425.84;10407344;28;20499;-76
2024/02/10 19:35:20;;;;;;;0.10;0.10;;;;;;;-145.06;100.00;111425.84;10406654;28;20024;-76
2024/02/10 19:40:21;;;;;;;0.00;0.00;;;;;;;-145.06;100.00;111425.84;10405402;28;20023;-76
2024/02/10 19:45:25;;;;;;;0.00;0.00;;;;;;;-145.06;100.00;111162.88;10407224;28;20378;-76
2024/02/10 19:50:25;;;;;;;0.10;0.10;;;;;;;-145.06;100.00;111162.88;10406098;28;20116;-76
2024/02/10 19:55:27;;;;;;;0.00;0.00;;;;;;;-145.06;100.00;111162.88;10405892;28;20151;-76
2024/02/10 20:00:28;;;;;;;0.00;0.00;;;;;;;-145.06;100.00;111162.88;10402918;28;20025;-76
2024/02/10 20:05:28;;;;;;;0.00;0.00;;;;;;;-145.06;100.00;110899.94;10404536;28;20033;-76
2024/02/10 20:10:29;;;;;;;0.00;0.00;;;;;;;-145.06;100.00;110374.13;10405706;28;20398;-76
2024/02/10 20:15:31;;;;;;;0.00;0.00;;;;;;;-145.06;100.00;110374.13;10407084;28;20299;-76
2024/02/10 20:20:36;;;;;;;0.00;0.00;;;;;;;-145.06;100.00;110374.13;10405257;28;20071;-76
2024/02/10 20:25:38;;;;;;;0.00;0.00;;;;;;;-145.06;100.00;110111.25;10407984;28;20104;-77
2024/02/10 20:30:43;;;;;;;0.00;0.00;;;;;;;-145.06;100.00;110374.13;10424721;28;20022;-76
2024/02/10 20:35:43;;;;;;;;;;;;;;;-145.06;100.00;110374.13;10414019;28;20030;-75
2024/02/10 20:40:43;;;;;;;0.00;0.00;;;;;;;-145.06;100.00;110374.13;10413338;28;19909;-75
2024/02/10 20:45:43;;;;;;;0.00;0.00;;;;;;;-145.06;100.00;110374.13;10412797;28;20021;-75
2024/02/10 20:50:44;;;;;;;0.00;0.00;;;;;;;-145.06;100.00;110637.03;10412432;28;20335;-75
2024/02/10 20:55:44;;;;;;;0.00;0.00;;;;;;;-145.06;100.00;110637.03;10413612;28;20032;-75
2024/02/10 21:00:45;;;;;;;0.00;0.00;;;;;;;-145.06;100.00;110899.94;10412987;28;20024;-76
2024/02/10 21:05:47;;;;;;;0.00;0.00;;;;;;;-145.06;100.00;110899.94;10411946;28;20061;-75
2024/02/10 21:10:48;;;;;;;0.00;0.00;;;;;;;-145.06;100.00;110899.94;10412355;28;20053;-76
2024/02/10 21:15:48;;;;;;;0.00;0.00;;;;;;;-145.06;100.00;110899.94;10411363;28;20506;-75
2024/02/10 21:20:48;;;;;;;0.00;0.00;;;;;;;-145.06;100.00;110899.94;10411556;28;20057;-76
2024/02/10 21:25:49;;;;;;;0.00;0.00;;;;;;;-145.06;100.00;110899.94;10411797;28;20033;-75
2024/02/10 21:30:50;;;;;;;0.00;0.00;;;;;;;-145.06;100.00;111162.88;10411601;28;20048;-75
2024/02/10 21:35:52;;;;;;;0.05;0.05;;;;;;;-145.06;100.00;111162.88;10410630;28;20097;-75
2024/02/10 21:40:53;;;;;;;0.00;0.00;;;;;;;-145.06;100.00;111162.88;10413314;28;20025;-77
2024/02/10 21:45:54;;;;;;;0.00;0.00;;;;;;;-145.06;100.00;111162.88;10414478;28;20021;-77
2024/02/10 21:50:56;;;;;;;0.00;0.00;;;;;;;-145.06;100.00;111162.88;10411628;28;20041;-77
2024/02/10 21:55:56;;;;;;;0.00;0.00;;;;;;;-145.06;100.00;111162.88;10411675;28;20486;-76
2024/02/10 22:00:57;;;;;;;0.00;0.00;;;;;;;-145.06;100.00;111162.88;10420769;28;20021;-76
2024/02/10 22:05:57;;;;;;;0.00;0.00;;;;;;;-145.06;100.00;111425.84;10410336;28;20089;-76
2024/02/10 22:10:57;;;;;;;0.00;0.00;;;;;;;-145.06;100.00;111162.88;10409672;28;20028;-77
2024/02/10 22:15:58;;;;;;;0.00;0.00;;;;;;;-145.06;100.00;111162.88;10412537;28;20346;-76
2024/02/10 22:21:02;;;;;;;0.00;0.00;;;;;;;-145.06;100.00;110899.94;10412953;28;20796;-76
2024/02/10 22:26:05;;;;;;;0.00;0.00;;;;;;;-145.06;100.00;110899.94;10409622;28;20036;-76
2024/02/10 22:31:05;;;;;;;0.00;0.00;;;;;;;-145.06;100.00;110637.03;10412365;28;20033;-76
2024/02/10 22:36:11;;;;;;;0.00;0.00;;;;;;;-145.06;100.00;110637.03;10411031;28;20548;-76
2024/02/10 22:41:12;;;;;;;0.00;0.00;;;;;;;-145.06;100.00;110374.13;10408008;28;20071;-76
2024/02/10 22:46:14;;;;;;;0.00;0.00;;;;;;;-145.06;100.00;110374.13;10412981;28;20044;-77
2024/02/10 22:51:15;;;;;;;0.00;0.00;;;;;;;-145.06;100.00;110111.25;10409391;28;20282;-77
2024/02/10 22:56:17;;;;;;;0.00;0.00;;;;;;;-145.06;100.00;109848.38;10411816;28;20021;-76
2024/02/10 23:01:24;;;;;;;0.10;0.10;;;;;;;-145.06;100.00;109585.53;10408936;28;20035;-77
2024/02/10 23:06:31;;;;;;;0.00;0.00;;;;;;;-145.06;100.00;109322.72;10411306;28;20124;-76